Latest Weather Observations for Jacup

IDW60801

Issued at 8:33 am WST Tuesday 17 January 2017 (issued every 30 minutes, with the page automatically refreshed every 10 minutes)

About weather observations | Map of weather stations | Latest weather observations for WA | Other Formats
Station Details ID: 010905 Name: JACUP Lat: -33.89 Lon: 119.11 Height: 305.0 m
Data from the previous 72 hours. | See also: Recent months at Jacup
Date/Time
WST
Temp
°C
App
Temp
°C
Dew
Point
°C
Rel
Hum
%
Delta-T
°C
Wind Press
QNH
hPa
Press
MSL
hPa
Rain since
9am
mm
Dir  Spd
km/h
Gust
km/h
Spd
kts
Gust
kts
17/08:30am 16.3 11.9 7.5 56 4.5 SE 20 32 11 17 1017.7 1016.5 0.0
17/08:00am 15.4 10.2 7.4 59 4.0 SE 24 35 13 19 1017.9 1016.7 0.0
17/07:30am 14.8 10.5 7.8 63 3.5 SSE 20 30 11 16 1017.7 1016.5 0.0
17/07:00am 14.3 10.7 8.3 67 3.0 SSE 17 24 9 13 1017.3 1016.2 0.0
17/06:30am 13.3 10.0 8.0 70 2.7 SSE 15 20 8 11 1017.0 1015.9 0.0
17/06:00am 11.8 9.7 8.3 79 1.7 SSE 9 17 5 9 1016.8 1015.7 0.0
17/05:30am 10.1 7.8 7.5 84 1.3 SSE 9 13 5 7 1016.4 1015.3 0.0
17/05:00am 10.0 7.3 7.4 84 1.3 SSE 11 15 6 8 1016.1 1015.0 0.0
17/04:30am 10.1 7.8 7.5 84 1.3 SSE 9 13 5 7 1015.9 1014.8 0.0
17/04:00am 10.8 7.8 7.9 82 1.4 S 13 17 7 9 1015.6 1014.5 0.0
17/03:30am 11.3 8.4 8.2 81 1.5 SSE 13 19 7 10 1015.3 1014.1 0.0
17/03:00am 11.5 8.7 8.5 82 1.5 SSE 13 17 7 9 1014.9 1013.7 0.0
17/02:30am 12.1 9.4 8.8 80 1.7 SSE 13 17 7 9 1014.6 1013.4 0.0
17/02:00am 13.0 10.3 9.1 77 2.0 SSE 13 20 7 11 1014.4 1013.2 0.0
17/01:30am 13.7 10.8 9.7 77 2.1 S 15 24 8 13 1014.4 1013.2 0.0
17/01:00am 13.4 10.9 9.6 78 2.0 SSE 13 22 7 12 1014.5 1013.3 0.0
17/12:30am 13.1 10.5 9.5 79 1.9 SE 13 20 7 11 1014.5 1013.3 0.0
17/12:00am 14.0 11.1 9.6 75 2.3 SSE 15 22 8 12 1014.8 1013.6 0.0
 
Date/Time
WST
Temp
°C
App
Temp
°C
Dew
Point
°C
Rel
Hum
%
Delta-T
°C
Wind Press
QNH
hPa
Press
MSL
hPa
Rain since
9am
mm
Dir  Spd
km/h
Gust
km/h
Spd
kts
Gust
kts
16/11:30pm 14.1 11.6 9.7 75 2.3 SE 13 19 7 10 1014.8 1013.6 0.0
16/11:00pm 13.8 11.3 9.6 76 2.2 SE 13 17 7 9 1014.9 1013.7 0.0
16/10:30pm 12.4 10.2 9.2 81 1.6 SE 11 13 6 7 1014.9 1013.7 0.0
16/10:00pm 12.6 10.0 9.2 80 1.7 SE 13 17 7 9 1014.8 1013.6 0.0
16/09:30pm 12.7 10.5 9.2 79 1.8 SE 11 15 6 8 1014.9 1013.7 0.0
16/09:00pm 13.5 10.9 9.4 76 2.1 SE 13 20 7 11 1014.6 1013.4 0.0
16/08:30pm 13.9 10.9 9.3 74 2.4 SSE 15 19 8 10 1014.3 1013.1 0.0
16/08:00pm 14.5 10.8 9.3 71 2.7 SSE 19 28 10 15 1014.2 1013.0 0.0
16/07:30pm 15.1 11.3 9.0 67 3.2 SSE 19 28 10 15 1013.9 1012.8 0.0
16/07:00pm 15.6 11.6 9.1 65 3.4 SSE 20 35 11 19 1013.5 1012.4 0.0
16/06:30pm 16.6 12.0 9.8 64 3.6 S 24 35 13 19 1013.1 1012.0 0.0
16/06:00pm 17.1 13.1 10.5 65 3.6 S 22 35 12 19 1013.0 1011.9 0.0
16/05:30pm 17.9 13.2 10.8 63 3.9 SSE 26 39 14 21 1012.5 1011.3 0.0
16/05:00pm 19.8 15.2 11.0 57 4.9 SSE 26 44 14 24 1011.9 1010.7 0.0
16/04:30pm 20.7 16.0 10.5 52 5.6 S 26 41 14 22 1011.6 1010.4 0.0
16/04:00pm 21.6 16.9 9.2 45 6.7 S 24 35 13 19 1011.5 1010.3 0.0
16/03:48pm 22.9 18.3 9.7 43 7.3 SE 24 56 13 30 1011.2 1010.0 0.0
16/03:30pm 21.8 17.0 8.7 43 7.0 S 24 35 13 19 1011.2 1010.0 0.0
16/03:00pm 22.0 17.0 8.2 41 7.4 SSE 24 35 13 19 1011.4 1010.2 0.0
16/02:30pm 23.4 18.2 8.7 39 8.0 S 26 37 14 20 1011.1 1009.9 0.0
16/02:00pm 23.6 19.1 8.5 38 8.2 SSE 22 32 12 17 1010.9 1009.7 0.0
16/01:30pm 23.1 19.0 8.8 40 7.8 S 20 37 11 20 1010.7 1009.5 0.0
16/01:00pm 23.1 19.2 9.5 42 7.5 SSE 20 30 11 16 1010.6 1009.4 0.0
16/12:30pm 25.0 21.7 11.6 43 7.7 S 20 35 11 19 1010.4 1009.3 0.0
16/12:00pm 22.5 19.0 12.2 52 5.9 SSE 22 33 12 18 1010.6 1009.4 0.0
16/11:30am 23.3 20.3 12.6 51 6.2 S 20 32 11 17 1010.3 1009.2 0.0
16/11:00am 23.7 20.2 13.3 52 6.1 S 24 37 13 20 1010.3 1009.2 0.0
16/10:30am 22.9 19.6 11.6 49 6.4 SSE 20 35 11 19 1010.2 1009.1 0.0
16/10:00am 22.3 19.0 11.7 51 6.0 S 20 33 11 18 1010.4 1009.3 0.0
16/09:30am 21.3 18.5 11.3 53 5.6 S 17 26 9 14 1010.7 1009.5 0.0
16/09:00am 19.5 17.1 12.5 64 4.0 SSE 17 24 9 13 1010.8 1009.6 0.0
16/08:30am 17.8 15.4 12.7 72 2.9 SSE 17 24 9 13 1011.0 1009.8 0.0
16/08:00am 17.4 15.1 12.9 75 2.6 SSE 17 24 9 13 1010.8 1009.6 0.0
16/07:30am 16.8 14.4 12.5 76 2.4 S 17 28 9 15 1010.4 1009.3 0.0
16/07:00am 16.6 15.1 13.1 80 2.0 S 13 20 7 11 1010.7 1009.5 0.0
16/06:30am 15.9 14.0 13.0 83 1.6 S 15 24 8 13 1010.4 1009.3 0.0
16/06:00am 15.4 14.2 12.9 85 1.4 S 11 19 6 10 1010.2 1009.1 0.0
16/05:30am 15.1 13.6 13.0 87 1.2 S 13 20 7 11 1010.0 1008.9 0.0
16/05:00am 14.9 13.3 12.9 88 1.1 S 13 20 7 11 1009.6 1008.4 0.0
16/04:30am 14.3 12.8 13.0 92 0.7 S 13 19 7 10 1009.3 1008.1 0.0
16/04:00am 13.3 11.9 12.2 93 0.6 SSW 11 15 6 8 1009.2 1008.0 0.0
16/03:30am 13.2 11.4 12.1 93 0.6 SSW 13 17 7 9 1009.1 1007.9 0.0
16/03:00am 13.2 11.8 12.1 93 0.6 S 11 17 6 9 1008.9 1007.7 0.0
16/02:30am 13.1 12.0 11.8 92 0.7 S 9 13 5 7 1009.2 1008.0 0.0
16/02:00am 12.8 11.6 11.5 92 0.7 S 9 15 5 8 1009.1 1007.9 0.0
16/01:30am 12.6 11.3 11.2 91 0.7 S 9 11 5 6 1009.4 1008.2 0.0
16/01:00am 12.7 11.7 10.9 89 1.0 SSE 7 9 4 5 1009.4 1008.2 0.0
16/12:30am 13.5 11.9 11.7 89 1.0 SSE 11 15 6 8 1009.4 1008.2 0.0
16/12:00am 14.0 12.2 12.0 88 1.1 S 13 17 7 9 1009.5 1008.3 0.0
 
Date/Time
WST
Temp
°C
App
Temp
°C
Dew
Point
°C
Rel
Hum
%
Delta-T
°C
Wind Press
QNH
hPa
Press
MSL
hPa
Rain since
9am
mm
Dir  Spd
km/h
Gust
km/h
Spd
kts
Gust
kts
15/11:30pm 14.7 12.5 12.2 85 1.4 S 15 20 8 11 1009.5 1008.3 0.0
15/11:00pm 15.1 12.6 12.2 83 1.6 S 17 24 9 13 1009.7 1008.5 0.0
15/10:30pm 15.3 12.3 12.4 83 1.6 S 20 30 11 16 1009.7 1008.5 0.0
15/10:00pm 15.5 12.5 12.4 82 1.7 S 20 33 11 18 1009.9 1008.8 0.0
15/09:30pm 15.5 11.8 12.6 83 1.6 S 24 39 13 21 1009.9 1008.8 0.0
15/09:00pm 15.8 12.1 12.7 82 1.7 S 24 35 13 19 1009.9 1008.8 0.0
15/08:30pm 16.0 12.1 13.3 84 1.5 S 26 41 14 22 1009.5 1008.3 0.0
15/08:00pm 16.3 13.2 13.4 83 1.7 S 22 35 12 19 1009.2 1008.0 0.0
15/07:30pm 16.8 12.7 13.7 82 1.8 S 28 46 15 25 1008.9 1007.7 0.0
15/07:29pm 16.9 12.9 14.0 83 1.7 S 28 46 15 25 1008.9 1007.7 0.0
15/07:00pm 17.4 13.3 13.9 80 2.0 S 28 41 15 22 1008.4 1007.2 0.0
15/06:30pm 19.2 15.1 13.8 71 3.1 S 28 44 15 24 1007.7 1006.5 0.0
15/06:00pm 21.1 17.5 15.2 69 3.5 S 28 41 15 22 1007.3 1006.1 0.0
15/05:30pm 23.5 20.3 15.3 60 5.0 S 26 39 14 21 1006.7 1005.5 0.0
15/05:00pm 26.6 23.8 15.3 50 7.0 S 24 37 13 20 1006.3 1005.1 0.0
15/04:30pm 28.9 25.5 14.7 42 8.7 S 26 39 14 21 1006.1 1004.9 0.0
15/04:00pm 32.8 29.1 13.9 31 11.7 S 26 41 14 22 1005.7 1004.5 0.0
15/03:48pm 34.6 31.3 12.9 27 13.2 SSE 22 43 12 23 1005.5 1004.3 0.0
15/03:30pm 39.6 34.4 -2.6 7 20.9 NW 15 32 8 17 1005.6 1004.4 0.0
15/03:00pm 39.5 33.6 -2.6 7 20.9 NW 19 35 10 19 1005.9 1004.7 0.0
15/02:30pm 39.3 33.7 -2.8 7 20.7 NW 17 28 9 15 1006.3 1005.1 0.0
15/02:00pm 40.1 35.0 -2.2 7 21.2 NW 15 30 8 16 1006.7 1005.5 0.0
15/01:30pm 38.2 33.1 -1.8 8 19.9 NNW 15 26 8 14 1007.2 1006.0 0.0
15/01:00pm 38.2 33.1 -1.8 8 19.9 W 15 24 8 13 1007.5 1006.3 0.0
15/12:30pm 38.4 33.3 -1.6 8 19.9 NW 15 35 8 19 1007.9 1006.7 0.0
15/12:00pm 37.9 32.2 -0.4 9 19.4 NW 19 32 10 17 1008.3 1007.1 0.0
15/11:30am 37.3 32.7 -0.9 9 19.1 NNW 13 28 7 15 1008.8 1007.6 0.0
15/11:00am 36.0 29.6 0.9 11 18.0 N 24 39 13 21 1009.3 1008.1 0.0
15/10:30am 35.0 28.9 2.5 13 16.9 NNW 24 39 13 21 1009.6 1008.4 0.0
15/10:00am 34.3 27.9 3.0 14 16.4 N 26 41 14 22 1010.0 1008.9 0.0
15/09:30am 32.9 26.2 3.8 16 15.3 N 28 39 15 21 1010.3 1009.2 0.0
15/09:00am 31.6 24.7 4.4 18 14.4 N 30 41 16 22 1010.6 1009.4 0.0
15/08:30am 30.2 23.3 4.8 20 13.4 N 30 43 16 23 1010.9 1009.7 0.0
15/08:00am 27.2 20.2 6.0 26 11.2 N 32 46 17 25 1011.3 1010.1 0.0
15/07:30am 25.3 17.7 6.0 29 10.1 N 35 50 19 27 1011.5 1010.3 0.0
15/07:13am 24.0 17.2 6.7 33 9.1 N 32 50 17 27 1011.6 1010.4 0.0
15/07:00am 23.3 16.9 7.0 35 8.6 N 30 44 16 24 1011.7 1010.5 0.0
15/06:30am 20.4 16.1 9.3 49 6.0 N 22 32 12 17 1011.7 1010.5 0.0
15/06:00am 17.2 13.5 10.3 64 3.7 N 20 26 11 14 1011.5 1010.3 0.0
15/05:30am 15.8 12.3 10.1 69 3.0 N 19 24 10 13 1011.5 1010.3 0.0
15/05:00am 15.3 11.8 10.3 72 2.7 N 19 24 10 13 1011.3 1010.1 0.0
15/04:30am 14.9 11.4 10.1 73 2.5 N 19 22 10 12 1011.1 1009.9 0.0
15/04:00am 15.3 11.9 10.5 73 2.6 N 19 24 10 13 1011.0 1009.8 0.0
15/03:30am 15.7 12.3 10.7 72 2.7 N 19 24 10 13 1011.0 1009.8 0.0
15/03:00am 16.6 13.4 11.1 70 3.0 N 19 24 10 13 1011.2 1010.0 0.0
15/02:30am 15.9 12.6 10.9 72 2.7 N 19 22 10 12 1011.3 1010.1 0.0
15/02:00am 16.3 13.4 11.0 71 2.9 N 17 22 9 12 1011.5 1010.3 0.0
15/01:30am 16.7 14.3 11.4 71 2.9 NNE 15 20 8 11 1011.8 1010.6 0.0
15/01:00am 17.2 14.8 11.5 69 3.1 NE 15 19 8 10 1012.3 1011.1 0.0
15/12:30am 16.4 14.1 11.6 73 2.6 NE 15 19 8 10 1012.7 1011.5 0.0
15/12:00am 16.3 13.9 12.5 78 2.1 NE 17 20 9 11 1013.1 1012.0 0.0
 
Date/Time
WST
Temp
°C
App
Temp
°C
Dew
Point
°C
Rel
Hum
%
Delta-T
°C
Wind Press
QNH
hPa
Press
MSL
hPa
Rain since
9am
mm
Dir  Spd
km/h
Gust
km/h
Spd
kts
Gust
kts
14/11:30pm 15.8 13.5 12.9 83 1.6 ENE 17 20 9 11 1013.1 1012.0 0.0
14/11:00pm 16.2 14.1 13.5 84 1.5 ENE 17 22 9 12 1013.3 1012.2 0.0
14/10:30pm 16.0 14.1 14.2 89 1.0 ENE 17 20 9 11 1013.4 1012.3 0.0
14/10:00pm 16.0 14.1 14.2 89 1.0 E 17 20 9 11 1013.6 1012.5 0.0
14/09:30pm 16.5 15.0 14.2 86 1.3 E 15 20 8 11 1013.8 1012.7 0.0
14/09:00pm 16.8 15.6 13.9 83 1.7 E 13 17 7 9 1013.9 1012.8 0.0
14/08:30pm 17.4 16.1 13.7 79 2.1 ESE 13 19 7 10 1013.9 1012.8 0.0
14/08:00pm 18.2 16.5 13.7 75 2.6 ESE 15 20 8 11 1013.6 1012.5 0.0
14/07:30pm 19.3 17.6 13.5 69 3.4 ESE 15 20 8 11 1013.5 1012.4 0.0
14/07:00pm 21.0 18.8 13.4 62 4.4 ESE 17 26 9 14 1013.4 1012.3 0.0
14/06:30pm 22.7 20.0 13.5 56 5.4 ESE 20 30 11 16 1013.3 1012.2 0.0
14/06:00pm 24.3 21.1 13.2 50 6.5 ESE 22 33 12 18 1013.1 1012.0 0.0
14/05:30pm 25.9 22.6 12.7 44 7.8 ESE 22 32 12 17 1013.0 1011.9 0.0
14/05:00pm 27.0 23.3 12.6 41 8.5 ESE 24 33 13 18 1013.0 1011.9 0.0
14/04:30pm 28.1 24.3 12.5 38 9.2 ESE 24 32 13 17 1012.9 1011.8 0.0
14/04:00pm 28.2 23.5 12.1 37 9.5 ESE 28 35 15 19 1013.1 1012.0 0.0
14/03:30pm 29.1 24.3 11.6 33 10.2 ESE 28 35 15 19 1013.4 1012.3 0.0
14/03:00pm 29.3 24.9 11.8 34 10.3 ESE 26 37 14 20 1013.7 1012.6 0.0
14/02:30pm 30.0 25.5 10.0 29 11.5 ESE 24 33 13 18 1014.3 1013.1 0.0
14/02:00pm 29.7 25.4 10.8 31 10.9 ESE 24 35 13 19 1014.7 1013.5 0.0
14/01:30pm 29.9 25.5 10.5 30 11.2 ESE 24 35 13 19 1015.1 1013.9 0.0
14/01:02pm 31.7 27.9 6.0 20 13.9 ENE 15 43 8 23 1015.0 1013.8 0.0
14/01:00pm 30.8 27.6 5.3 20 13.6 NE 11 17 6 9 1015.4 1014.2 0.0
14/12:30pm 30.0 25.9 6.0 22 12.9 NE 17 30 9 16 1015.9 1014.8 0.0
14/12:00pm 28.5 24.5 6.6 25 11.8 ENE 17 30 9 16 1016.3 1015.2 0.0
14/11:30am 27.0 22.7 6.9 28 10.8 ENE 19 28 10 15 1016.8 1015.7 0.0
14/11:00am 26.3 22.8 7.4 30 10.2 NNE 15 26 8 14 1017.0 1015.9 0.0
14/10:30am 25.0 20.8 7.6 33 9.3 NE 19 28 10 15 1017.3 1016.2 0.0
14/10:00am 23.0 19.3 7.9 38 8.0 NE 17 26 9 14 1017.6 1016.4 0.0
14/09:30am 22.2 18.1 8.0 40 7.5 NE 19 28 10 15 1017.7 1016.5 0.0
14/09:00am 20.5 16.3 8.2 45 6.5 NE 20 30 11 16 1017.9 1016.7 0.0

Other Formats:

Comma delimited format used in spreadsheet applications
http://www.bom.gov.au/fwo/IDW60801/IDW60801.95636.axf

JavaScript Object Notation format (JSON) in row-major order
http://www.bom.gov.au/fwo/IDW60801/IDW60801.95636.json